createdAt,value
2019-03-18T00:00:24.919Z,2.91
2019-03-18T00:03:30.100Z,2.88
2019-03-18T00:06:35.260Z,2.80
2019-03-18T00:09:40.871Z,2.79
2019-03-18T00:12:46.014Z,2.73
2019-03-18T00:15:51.191Z,2.66
2019-03-18T00:18:56.345Z,2.76
2019-03-18T00:22:01.530Z,2.80
2019-03-18T00:25:06.998Z,2.93
2019-03-18T00:28:12.221Z,2.79
2019-03-18T00:31:17.375Z,2.70
2019-03-18T00:34:22.529Z,2.72
2019-03-18T00:37:27.624Z,2.95
2019-03-18T00:40:33.053Z,2.91
2019-03-18T00:43:38.238Z,3.08
2019-03-18T00:46:43.350Z,3.18
2019-03-18T00:49:48.476Z,3.25
2019-03-18T00:52:53.648Z,3.12
2019-03-18T00:55:58.806Z,3.07
2019-03-18T00:59:03.869Z,3.12
2019-03-18T01:02:09.001Z,3.02
2019-03-18T01:05:14.444Z,3.05
2019-03-18T01:08:19.659Z,3.25
2019-03-18T01:11:24.808Z,3.23
2019-03-18T01:14:29.923Z,3.28
2019-03-18T01:17:35.246Z,3.31
2019-03-18T01:20:40.478Z,3.37
2019-03-18T01:23:45.573Z,3.36
2019-03-18T01:26:50.684Z,3.58
2019-03-18T01:29:55.825Z,3.45
2019-03-18T01:33:01.009Z,3.34
2019-03-18T01:36:06.181Z,3.36
2019-03-18T01:39:11.382Z,3.60
2019-03-18T01:42:16.974Z,3.64
2019-03-18T01:45:22.216Z,3.60
2019-03-18T01:48:27.344Z,3.50
2019-03-18T01:51:32.452Z,3.74
2019-03-18T01:54:37.559Z,3.57
2019-03-18T01:57:42.649Z,3.56
2019-03-18T02:00:47.754Z,3.59
2019-03-18T02:03:52.851Z,3.45
2019-03-18T02:06:58.053Z,3.35
2019-03-18T02:10:03.317Z,3.36
2019-03-18T02:13:08.487Z,3.29
2019-03-18T02:16:13.611Z,3.27
2019-03-18T02:19:18.756Z,3.15
2019-03-18T02:22:23.979Z,2.95
2019-03-18T02:25:29.078Z,2.89
2019-03-18T02:28:34.205Z,2.86
2019-03-18T02:31:40.440Z,2.78
2019-03-18T02:34:45.527Z,2.81
2019-03-18T02:37:50.680Z,2.55
2019-03-18T02:40:55.840Z,2.66
2019-03-18T02:44:00.972Z,2.56
2019-03-18T02:47:06.094Z,2.25
2019-03-18T02:50:12.328Z,2.07
2019-03-18T02:53:17.495Z,2.20
2019-03-18T02:56:22.655Z,2.19
2019-03-18T02:59:27.799Z,2.19
2019-03-18T03:02:32.848Z,2.27
2019-03-18T03:05:38.972Z,2.47
2019-03-18T03:08:44.124Z,2.22
2019-03-18T03:11:49.257Z,2.18
2019-03-18T03:14:54.414Z,2.27
2019-03-18T03:17:59.496Z,2.25
2019-03-18T03:21:04.608Z,2.35
2019-03-18T03:24:09.799Z,2.29
2019-03-18T03:27:14.914Z,2.02
2019-03-18T03:30:20.048Z,1.66
2019-03-18T03:33:25.217Z,1.81
2019-03-18T03:36:30.337Z,1.85
2019-03-18T03:39:35.539Z,1.90
2019-03-18T03:42:40.670Z,1.52
2019-03-18T03:45:45.756Z,1.47
2019-03-18T03:48:50.890Z,1.29
2019-03-18T03:51:56.051Z,1.12
2019-03-18T03:55:01.227Z,1.14
2019-03-18T03:58:06.471Z,1.03
2019-03-18T04:01:11.635Z,1.06
2019-03-18T04:04:16.729Z,1.10
2019-03-18T04:07:21.871Z,1.08
2019-03-18T04:10:26.951Z,1.58
2019-03-18T04:13:32.090Z,1.50
2019-03-18T04:16:37.213Z,1.62
2019-03-18T04:19:42.260Z,1.70
2019-03-18T04:22:47.364Z,1.85
2019-03-18T04:25:52.575Z,2.46
2019-03-18T04:28:57.719Z,2.57
2019-03-18T04:32:02.847Z,2.66
2019-03-18T04:35:07.975Z,2.75
2019-03-18T04:38:13.084Z,2.87
2019-03-18T04:41:18.280Z,2.82
2019-03-18T04:44:24.541Z,3.01
2019-03-18T04:47:29.661Z,2.95
2019-03-18T04:50:34.755Z,3.01
2019-03-18T04:53:39.924Z,2.99
2019-03-18T04:56:45.031Z,3.04
2019-03-18T04:59:50.134Z,3.14
2019-03-18T05:02:55.286Z,3.00
2019-03-18T05:06:00.468Z,2.98
2019-03-18T05:09:07.800Z,3.07
2019-03-18T05:12:12.908Z,3.27
2019-03-18T05:15:18.045Z,3.21
2019-03-18T05:18:23.163Z,3.08
2019-03-18T05:21:28.341Z,2.87
2019-03-18T05:24:33.401Z,2.99
2019-03-18T05:27:38.527Z,2.98
2019-03-18T05:30:43.683Z,2.96
2019-03-18T05:33:48.806Z,3.06
2019-03-18T05:36:53.973Z,3.09
2019-03-18T05:39:59.074Z,3.02
2019-03-18T05:43:04.215Z,2.84
2019-03-18T05:46:09.347Z,2.90
2019-03-18T05:49:14.470Z,2.91
2019-03-18T05:52:19.621Z,2.73
2019-03-18T05:55:24.767Z,2.94
2019-03-18T05:58:29.878Z,3.05
2019-03-18T06:01:35.002Z,3.13
2019-03-18T06:04:40.255Z,3.17
2019-03-18T06:07:45.363Z,3.17
2019-03-18T06:10:50.563Z,3.25
2019-03-18T06:13:56.665Z,3.32
2019-03-18T06:17:01.915Z,3.33
2019-03-18T06:20:07.978Z,3.38
2019-03-18T06:23:13.161Z,3.44
2019-03-18T06:26:18.373Z,3.40
2019-03-18T06:29:23.500Z,3.45
2019-03-18T06:32:28.640Z,3.52
2019-03-18T06:35:33.852Z,3.45
2019-03-18T06:38:38.966Z,3.56
2019-03-18T06:41:44.123Z,3.51
2019-03-18T06:44:49.369Z,3.55
2019-03-18T06:48:04.139Z,3.65
2019-03-18T06:51:01.355Z,3.60
2019-03-18T06:54:06.523Z,3.71
2019-03-18T06:57:11.614Z,3.78
2019-03-18T07:00:17.768Z,3.94
2019-03-18T07:03:22.909Z,3.97
2019-03-18T07:06:28.057Z,4.11
2019-03-18T07:09:33.170Z,4.18
2019-03-18T07:12:38.241Z,4.35
2019-03-18T07:15:43.403Z,4.61
2019-03-18T07:18:48.568Z,4.81
2019-03-18T07:21:53.839Z,5.14
2019-03-18T07:24:59.025Z,5.44
2019-03-18T07:28:04.143Z,5.21
2019-03-18T07:31:09.298Z,5.37
2019-03-18T07:34:14.449Z,5.66
2019-03-18T07:37:19.610Z,6.07
2019-03-18T07:40:24.836Z,6.40
2019-03-18T07:43:29.990Z,6.29
2019-03-18T07:46:35.162Z,5.93
2019-03-18T07:49:40.255Z,5.74
2019-03-18T07:52:45.395Z,6.21
2019-03-18T07:55:50.516Z,6.43
2019-03-18T07:58:56.733Z,6.49
2019-03-18T08:02:01.816Z,6.17
2019-03-18T08:05:08.174Z,6.18
2019-03-18T08:08:13.455Z,6.22
2019-03-18T08:11:18.634Z,5.75
2019-03-18T08:14:23.726Z,5.75
2019-03-18T08:17:28.980Z,5.77
2019-03-18T08:20:34.111Z,5.76
2019-03-18T08:24:11.671Z,5.88
2019-03-18T08:27:16.942Z,5.98
2019-03-18T08:30:22.048Z,5.74
2019-03-18T08:33:27.245Z,5.92
2019-03-18T08:36:32.444Z,5.90
2019-03-18T08:39:37.721Z,5.66
2019-03-18T08:42:42.930Z,5.59
2019-03-18T08:45:48.057Z,5.80
2019-03-18T08:48:56.007Z,5.93
2019-03-18T08:52:00.128Z,6.12
2019-03-18T08:55:05.534Z,5.64
2019-03-18T08:58:10.742Z,5.51
2019-03-18T09:01:15.905Z,5.40
2019-03-18T09:04:21.156Z,5.38
2019-03-18T09:07:26.328Z,4.87
2019-03-18T09:10:32.439Z,4.95
2019-03-18T09:13:37.619Z,4.89
2019-03-18T09:16:42.796Z,5.19
2019-03-18T09:19:47.948Z,5.30
2019-03-18T09:22:53.172Z,5.07
2019-03-18T09:25:58.375Z,5.37
2019-03-18T09:29:03.569Z,5.76
2019-03-18T09:32:08.664Z,5.70
2019-03-18T09:35:13.822Z,5.46
2019-03-18T09:38:19.005Z,5.66
2019-03-18T09:41:24.143Z,5.98
2019-03-18T09:44:29.311Z,5.88
2019-03-18T09:47:34.593Z,6.42
2019-03-18T09:50:39.767Z,6.42
2019-03-18T09:53:45.018Z,6.15
2019-03-18T09:56:50.119Z,6.03
2019-03-18T09:59:55.275Z,5.86
2019-03-18T10:03:00.451Z,5.66
2019-03-18T10:06:05.663Z,6.29
2019-03-18T10:09:10.791Z,5.94
2019-03-18T10:12:15.971Z,5.97
2019-03-18T10:15:21.234Z,5.85
2019-03-18T10:18:26.412Z,6.15
2019-03-18T10:21:31.594Z,6.86
2019-03-18T10:24:36.799Z,6.96
2019-03-18T10:27:42.014Z,7.46
2019-03-18T10:30:47.133Z,7.44
2019-03-18T10:33:52.401Z,7.66
2019-03-18T10:36:57.581Z,7.57
2019-03-18T10:40:03.923Z,7.79
2019-03-18T10:43:09.067Z,7.26
2019-03-18T10:46:14.166Z,6.82
2019-03-18T10:49:19.425Z,6.57
2019-03-18T10:52:24.551Z,7.14
2019-03-18T10:55:29.729Z,7.77
2019-03-18T10:58:34.819Z,7.37
2019-03-18T11:01:40.041Z,7.62
2019-03-18T11:04:45.139Z,7.11
2019-03-18T11:07:51.751Z,8.06
2019-03-18T11:10:58.202Z,8.22
2019-03-18T11:14:03.510Z,7.64
2019-03-18T11:17:09.671Z,7.71
2019-03-18T11:20:14.898Z,7.29
2019-03-18T11:23:20.109Z,7.77
2019-03-18T11:26:25.379Z,7.78
2019-03-18T11:29:30.495Z,7.88
2019-03-18T11:32:35.739Z,7.74
2019-03-18T11:35:40.826Z,8.41
2019-03-18T11:39:16.105Z,7.76
2019-03-18T11:42:21.300Z,6.42
2019-03-18T11:45:26.427Z,5.77
2019-03-18T11:48:31.574Z,5.76
2019-03-18T11:51:36.718Z,5.51
2019-03-18T11:54:41.906Z,5.08
2019-03-18T11:57:47.015Z,4.96
2019-03-18T12:00:52.211Z,4.84
2019-03-18T12:03:57.394Z,5.01
2019-03-18T12:07:02.550Z,5.53
2019-03-18T12:10:09.949Z,5.45
2019-03-18T12:13:16.284Z,5.37
2019-03-18T12:16:21.557Z,5.23
2019-03-18T12:19:26.754Z,5.14
2019-03-18T12:22:31.867Z,5.30
2019-03-18T12:25:37.005Z,5.78
2019-03-18T12:28:42.153Z,5.95
2019-03-18T12:31:47.360Z,6.15
2019-03-18T12:34:53.526Z,6.39
2019-03-18T12:37:58.714Z,6.59
2019-03-18T12:41:03.837Z,6.90
2019-03-18T12:44:09.034Z,7.59
2019-03-18T12:47:14.162Z,7.83
2019-03-18T12:50:36.369Z,8.04
2019-03-18T12:53:26.484Z,8.32
2019-03-18T12:56:31.612Z,8.23
2019-03-18T12:59:36.843Z,8.35
2019-03-18T13:02:42.078Z,8.48
2019-03-18T13:05:47.247Z,8.33
2019-03-18T13:08:52.363Z,8.32
2019-03-18T13:11:57.588Z,8.42
2019-03-18T13:15:02.799Z,8.31
2019-03-18T13:18:07.995Z,8.53
2019-03-18T13:21:13.093Z,8.28
2019-03-18T13:24:18.204Z,7.71
2019-03-18T13:27:23.351Z,6.16
2019-03-18T13:30:28.456Z,5.25
2019-03-18T13:33:33.575Z,4.89
2019-03-18T13:36:38.816Z,4.75
2019-03-18T13:39:43.942Z,4.51
2019-03-18T13:42:49.139Z,4.52
2019-03-18T13:45:55.530Z,4.97
2019-03-18T13:49:00.965Z,5.45
2019-03-18T13:52:06.179Z,5.56
2019-03-18T13:55:11.361Z,5.61
2019-03-18T13:58:16.544Z,5.85
2019-03-18T14:01:21.735Z,5.99
2019-03-18T14:04:28.012Z,5.83
2019-03-18T14:07:33.147Z,6.15
2019-03-18T14:10:38.247Z,6.33
2019-03-18T14:13:43.497Z,6.82
2019-03-18T14:16:48.613Z,7.27
2019-03-18T14:19:53.815Z,7.17
2019-03-18T14:22:58.982Z,6.99
2019-03-18T14:26:04.085Z,7.10
2019-03-18T14:29:09.261Z,6.94
2019-03-18T14:32:14.395Z,7.15
2019-03-18T14:35:21.678Z,7.37
2019-03-18T14:38:26.379Z,7.61
2019-03-18T14:41:31.527Z,7.44
2019-03-18T14:44:36.692Z,6.49
2019-03-18T14:47:41.830Z,6.21
2019-03-18T14:50:47.032Z,6.38
2019-03-18T14:53:52.147Z,6.21
2019-03-18T14:56:57.315Z,6.02
2019-03-18T15:00:02.462Z,5.81
2019-03-18T15:03:08.857Z,5.85
2019-03-18T15:06:14.066Z,5.87
2019-03-18T15:09:19.306Z,5.93
2019-03-18T15:12:24.577Z,5.89
2019-03-18T15:15:29.698Z,5.83
2019-03-18T15:18:34.933Z,5.94
2019-03-18T15:21:40.120Z,5.61
2019-03-18T15:24:45.218Z,5.58
2019-03-18T15:27:50.314Z,5.43
2019-03-18T15:30:55.501Z,5.49
2019-03-18T15:34:00.686Z,5.50
2019-03-18T15:37:05.849Z,5.44
2019-03-18T15:40:11.754Z,5.42
2019-03-18T15:43:16.887Z,5.35
2019-03-18T15:46:21.975Z,5.39
2019-03-18T15:49:27.142Z,5.33
2019-03-18T15:52:33.217Z,5.47
2019-03-18T15:55:38.409Z,5.40
2019-03-18T15:58:43.536Z,5.31
2019-03-18T16:01:48.683Z,5.08
2019-03-18T16:04:53.790Z,4.87
2019-03-18T16:07:59.009Z,4.86
2019-03-18T16:11:04.149Z,4.61
2019-03-18T16:14:09.363Z,4.58
2019-03-18T16:17:14.579Z,4.63
2019-03-18T16:20:19.815Z,4.54
2019-03-18T16:23:26.070Z,4.61
2019-03-18T16:26:31.251Z,4.72
2019-03-18T16:29:36.389Z,4.81
2019-03-18T16:32:41.514Z,4.78
2019-03-18T16:35:48.206Z,4.60
2019-03-18T16:38:54.365Z,4.49
2019-03-18T16:41:59.541Z,4.50
2019-03-18T16:45:04.847Z,4.42
2019-03-18T16:48:09.953Z,4.22
2019-03-18T16:51:15.146Z,4.19
2019-03-18T16:54:20.268Z,4.33
2019-03-18T16:57:25.498Z,4.38
2019-03-18T17:00:30.732Z,4.38
2019-03-18T17:03:35.811Z,4.20
2019-03-18T17:06:42.022Z,3.99
2019-03-18T17:09:47.151Z,3.90
2019-03-18T17:12:52.336Z,3.72
2019-03-18T17:15:57.465Z,3.77
2019-03-18T17:19:02.608Z,3.70
2019-03-18T17:22:07.743Z,3.60
2019-03-18T17:25:14.950Z,3.54
2019-03-18T17:28:20.083Z,3.47
2019-03-18T17:31:25.359Z,3.31
2019-03-18T17:34:30.511Z,3.18
2019-03-18T17:37:36.749Z,2.89
2019-03-18T17:40:41.940Z,2.88
2019-03-18T17:43:47.126Z,2.74
2019-03-18T17:46:52.301Z,2.96
2019-03-18T17:49:57.438Z,3.21
2019-03-18T17:53:03.977Z,3.33
2019-03-18T17:56:09.483Z,3.34
2019-03-18T17:59:14.679Z,3.22
2019-03-18T18:02:19.869Z,2.86
2019-03-18T18:05:25.032Z,2.76
2019-03-18T18:08:30.289Z,2.65
2019-03-18T18:11:35.505Z,2.46
2019-03-18T18:14:40.707Z,2.27
2019-03-18T18:17:46.286Z,2.12
2019-03-18T18:20:51.535Z,2.03
2019-03-18T18:23:56.665Z,1.88
2019-03-18T18:27:01.869Z,2.00
2019-03-18T18:30:07.575Z,1.85
2019-03-18T18:33:12.759Z,1.85
2019-03-18T18:36:17.960Z,1.61
2019-03-18T18:39:23.180Z,1.43
2019-03-18T18:42:28.249Z,1.58
2019-03-18T18:45:33.499Z,1.64
2019-03-18T18:48:38.681Z,1.54
2019-03-18T18:51:44.011Z,1.64
2019-03-18T18:54:49.169Z,1.67
2019-03-18T18:57:54.353Z,1.54
2019-03-18T19:00:59.591Z,1.45
2019-03-18T19:04:04.966Z,1.53
2019-03-18T19:07:10.203Z,1.37
2019-03-18T19:10:15.501Z,1.47
2019-03-18T19:13:20.649Z,1.55
2019-03-18T19:16:25.836Z,1.48
2019-03-18T19:19:32.363Z,1.20
2019-03-18T19:22:37.571Z,1.10
2019-03-18T19:25:42.799Z,0.99
2019-03-18T19:28:48.003Z,1.04
2019-03-18T19:31:53.198Z,1.26
2019-03-18T19:34:58.418Z,1.23
2019-03-18T19:38:03.821Z,1.09
2019-03-18T19:41:09.307Z,1.07
2019-03-18T19:44:15.472Z,0.86
2019-03-18T19:47:21.910Z,0.81
2019-03-18T19:50:27.146Z,0.92
2019-03-18T19:53:32.293Z,0.88
2019-03-18T19:56:37.447Z,0.82
2019-03-18T19:59:42.564Z,0.80
2019-03-18T20:02:47.711Z,0.65
2019-03-18T20:05:52.958Z,0.86
2019-03-18T20:08:58.231Z,0.97
2019-03-18T20:12:03.442Z,1.00
2019-03-18T20:15:10.344Z,0.86
2019-03-18T20:18:15.544Z,0.84
2019-03-18T20:21:20.710Z,0.88
2019-03-18T20:24:25.903Z,0.76
2019-03-18T20:27:31.072Z,0.47
2019-03-18T20:30:36.285Z,0.42
2019-03-18T20:33:41.530Z,0.35
2019-03-18T20:36:47.773Z,0.27
2019-03-18T20:39:53.055Z,0.38
2019-03-18T20:42:58.266Z,0.20
2019-03-18T20:46:03.449Z,-0.02
2019-03-18T20:49:09.681Z,0.08
2019-03-18T20:52:17.028Z,0.16
2019-03-18T20:55:22.102Z,-0.09
2019-03-18T20:58:27.270Z,-0.21
2019-03-18T21:01:32.465Z,-0.07
2019-03-18T21:04:37.591Z,-0.16
2019-03-18T21:07:42.826Z,-0.01
2019-03-18T21:10:48.003Z,0.09
2019-03-18T21:13:57.348Z,-0.08
2019-03-18T21:17:00.165Z,-0.11
2019-03-18T21:20:06.330Z,-0.08
2019-03-18T21:23:11.518Z,-0.17
2019-03-18T21:26:16.769Z,-0.11
2019-03-18T21:29:22.044Z,-0.10
2019-03-18T21:32:27.206Z,-0.20
2019-03-18T21:35:32.422Z,-0.04
2019-03-18T21:38:37.665Z,-0.07
2019-03-18T21:41:42.796Z,0.01
2019-03-18T21:44:48.007Z,0.11
2019-03-18T21:47:53.143Z,0.08
2019-03-18T21:50:58.319Z,0.34
2019-03-18T21:54:03.430Z,0.48
2019-03-18T21:57:09.208Z,0.37
2019-03-18T22:00:15.876Z,0.37
2019-03-18T22:03:21.129Z,0.36
2019-03-18T22:06:26.313Z,0.48
2019-03-18T22:09:31.410Z,0.65
2019-03-18T22:12:36.622Z,0.72
2019-03-18T22:15:41.770Z,0.77
2019-03-18T22:18:46.905Z,1.05
2019-03-18T22:21:52.117Z,0.74
2019-03-18T22:24:57.273Z,0.76
2019-03-18T22:28:02.542Z,0.99
2019-03-18T22:31:07.704Z,0.85
2019-03-18T22:34:12.914Z,0.78
2019-03-18T22:37:18.131Z,0.92
2019-03-18T22:40:23.309Z,0.96
2019-03-18T22:43:28.457Z,0.86
2019-03-18T22:46:33.641Z,0.96
2019-03-18T22:49:38.767Z,0.96
2019-03-18T22:52:43.897Z,0.98
2019-03-18T22:55:49.128Z,0.94
2019-03-18T22:58:54.230Z,1.09
2019-03-18T23:01:59.438Z,0.94
2019-03-18T23:05:05.120Z,0.91
2019-03-18T23:08:10.288Z,0.75
2019-03-18T23:11:15.418Z,0.77
2019-03-18T23:14:21.657Z,0.75
2019-03-18T23:17:26.815Z,0.76
2019-03-18T23:20:32.001Z,0.78
2019-03-18T23:23:37.172Z,0.63
2019-03-18T23:26:42.442Z,0.71
2019-03-18T23:29:47.592Z,0.94
2019-03-18T23:32:52.864Z,0.65
2019-03-18T23:35:58.032Z,0.65
2019-03-18T23:39:03.847Z,0.57
2019-03-18T23:42:08.945Z,0.50
2019-03-18T23:45:14.354Z,0.51
2019-03-18T23:48:19.509Z,0.58
2019-03-18T23:51:24.689Z,0.70
2019-03-18T23:54:30.254Z,0.57
2019-03-18T23:57:35.474Z,0.61
